Time;durP1;ratioP1;P1;durP2;ratioP2;P2;SDS_P1;SDS_P2;PMS_P1;PMS_P2;Temp;Humidity;BMP_temperature;BMP_pressure;BME280_temperature;BME280_humidity;BME280_pressure;Samples;Min_cycle;Max_cycle;Signal;HPM_P1;HPM_P2
2023/03/07 00:02:14;;;;;;;28.65;18.60;;;3.50;99.90;;;;;;6273844;22;20007;-80
2023/03/07 00:04:43;;;;;;;25.25;16.98;;;3.50;99.90;;;;;;6246746;22;20034;-79
2023/03/07 00:07:09;;;;;;;22.75;15.63;;;3.50;99.90;;;;;;6273629;22;20012;-79
2023/03/07 00:09:35;;;;;;;21.23;14.95;;;3.50;99.90;;;;;;6273866;22;20004;-80
2023/03/07 00:12:00;;;;;;;24.98;15.75;;;3.50;99.90;;;;;;6246431;22;20310;-80
2023/03/07 00:14:26;;;;;;;22.25;14.25;;;3.50;99.90;;;;;;6245692;22;20016;-80
2023/03/07 00:16:51;;;;;;;19.30;11.88;;;3.60;99.90;;;;;;6246262;22;20019;-80
2023/03/07 00:19:17;;;;;;;17.02;11.43;;;3.90;99.90;;;;;;6276856;22;20054;-80
2023/03/07 00:21:43;;;;;;;17.77;12.10;;;3.70;99.90;;;;;;6277133;22;20026;-80
2023/03/07 00:24:09;;;;;;;18.15;11.63;;;3.70;99.90;;;;;;6249514;22;20011;-80
2023/03/07 00:26:38;;;;;;;20.67;11.88;;;3.70;99.90;;;;;;6249733;22;20011;-79
2023/03/07 00:29:05;;;;;;;14.95;9.80;;;3.70;99.90;;;;;;6249104;22;20149;-80
2023/03/07 00:31:31;;;;;;;13.30;8.70;;;3.80;99.90;;;;;;6224326;22;20095;-80
2023/03/07 00:33:57;;;;;;;13.48;7.80;;;3.80;99.90;;;;;;6249681;22;20039;-80
2023/03/07 00:36:23;;;;;;;14.98;8.93;;;3.80;99.90;;;;;;6276789;22;20015;-80
2023/03/07 00:38:49;;;;;;;14.55;7.72;;;3.70;99.90;;;;;;6249460;22;20078;-80
2023/03/07 00:41:19;;;;;;;12.32;5.85;;;3.80;99.90;;;;;;6277232;22;20007;-79
2023/03/07 00:43:48;;;;;;;9.18;4.72;;;3.80;99.90;;;;;;6248799;22;20011;-80
2023/03/07 00:46:15;;;;;;;7.15;4.22;;;3.70;99.90;;;;;;6249298;22;20020;-80
2023/03/07 00:48:42;;;;;;;7.88;4.15;;;3.60;99.90;;;;;;6249480;22;20016;-80
2023/03/07 00:51:10;;;;;;;8.02;3.33;;;3.60;99.90;;;;;;6276870;22;20078;-80
2023/03/07 00:53:36;;;;;;;8.90;3.55;;;3.50;99.90;;;;;;6249325;22;20080;-79
2023/03/07 00:56:11;;;;;;;7.13;2.88;;;3.40;99.90;;;;;;6276879;22;20066;-80
2023/03/07 00:58:37;;;;;;;11.00;3.35;;;3.30;99.90;;;;;;6248709;22;20087;-81
2023/03/07 01:01:05;;;;;;;8.95;3.05;;;3.30;99.90;;;;;;6223811;22;20097;-80
2023/03/07 01:03:31;;;;;;;9.13;2.90;;;3.30;99.90;;;;;;6276428;22;20012;-80
2023/03/07 01:06:01;;;;;;;10.55;2.88;;;3.30;99.90;;;;;;6249246;22;20023;-80
2023/03/07 01:08:26;;;;;;;8.10;3.10;;;3.30;99.90;;;;;;6249263;22;20047;-80
2023/03/07 01:10:56;;;;;;;7.18;2.70;;;3.40;99.90;;;;;;6249731;22;20011;-80
2023/03/07 01:13:22;;;;;;;8.55;2.60;;;3.30;99.90;;;;;;6275721;22;20071;-80
2023/03/07 01:15:48;;;;;;;8.63;2.67;;;3.40;99.90;;;;;;6249006;22;20117;-80
2023/03/07 01:18:13;;;;;;;10.23;2.67;;;3.40;99.90;;;;;;6276414;22;20008;-80
2023/03/07 01:20:39;;;;;;;7.97;2.38;;;3.40;99.90;;;;;;6223411;22;20097;-80
2023/03/07 01:23:05;;;;;;;10.50;2.78;;;3.40;99.90;;;;;;6224137;22;20046;-80
2023/03/07 01:25:35;;;;;;;10.18;2.10;;;3.40;99.90;;;;;;6224141;22;20012;-79
2023/03/07 01:28:02;;;;;;;13.93;3.08;;;3.40;99.90;;;;;;6248779;22;20043;-80
2023/03/07 01:30:28;;;;;;;13.52;3.28;;;3.40;99.90;;;;;;6274996;22;20055;-78
2023/03/07 01:32:55;;;;;;;12.25;2.83;;;3.70;99.90;;;;;;6275288;22;20315;-80
2023/03/07 01:35:21;;;;;;;11.75;2.95;;;3.40;99.90;;;;;;6247734;22;20019;-79
2023/03/07 01:37:48;;;;;;;8.07;2.70;;;3.40;99.90;;;;;;6275120;22;20023;-80
2023/03/07 01:40:14;;;;;;;14.40;2.85;;;3.40;99.90;;;;;;6275202;22;20004;-80
2023/03/07 01:42:40;;;;;;;15.45;3.25;;;3.40;99.90;;;;;;6274244;22;20027;-80
2023/03/07 01:45:12;;;;;;;12.05;2.70;;;3.40;99.90;;;;;;6274822;22;20054;-80
2023/03/07 01:47:38;;;;;;;13.93;2.85;;;3.40;99.90;;;;;;6274939;22;20087;-80
2023/03/07 01:50:10;;;;;;;9.25;2.90;;;3.50;99.90;;;;;;6275099;22;20023;-80
2023/03/07 01:52:40;;;;;;;15.40;2.75;;;3.50;99.90;;;;;;6274904;22;20072;-80
2023/03/07 01:55:23;;;;;;;15.60;3.10;;;3.50;99.90;;;;;;6247333;22;20026;-80
2023/03/07 01:57:50;;;;;;;13.07;2.70;;;3.50;99.90;;;;;;6247268;22;20019;-79
2023/03/07 02:00:25;;;;;;;17.25;3.47;;;3.40;99.90;;;;;;6274893;22;20030;-80
2023/03/07 02:03:03;;;;;;;12.00;2.72;;;3.40;99.90;;;;;;6274819;22;20043;-80
2023/03/07 02:05:34;;;;;;;13.57;2.88;;;3.40;99.90;;;;;;6247511;22;20090;-79
2023/03/07 02:08:01;;;;;;;14.68;2.78;;;3.40;99.90;;;;;;6247331;22;20012;-80
2023/03/07 02:10:29;;;;;;;17.08;2.92;;;3.40;99.90;;;;;;6246855;22;20019;-80
2023/03/07 02:12:55;;;;;;;9.43;2.33;;;3.40;99.90;;;;;;6222123;22;20012;-80
2023/03/07 02:15:21;;;;;;;13.55;2.65;;;3.70;99.90;;;;;;6247236;22;20026;-80
2023/03/07 02:17:46;;;;;;;11.85;2.75;;;3.30;99.90;;;;;;6274788;22;20047;-80
2023/03/07 02:20:34;;;;;;;14.65;3.00;;;3.30;99.90;;;;;;6221942;22;20018;-80
2023/03/07 02:23:01;;;;;;;15.07;2.70;;;3.20;99.90;;;;;;6247156;22;20019;-80
2023/03/07 02:25:40;;;;;;;13.80;2.75;;;3.10;99.90;;;;;;6246988;22;20015;-80
2023/03/07 02:28:07;;;;;;;12.95;2.78;;;3.10;99.90;;;;;;6274816;22;20103;-80
2023/03/07 02:30:35;;;;;;;20.23;3.35;;;3.00;99.90;;;;;;6274491;22;20047;-80
2023/03/07 02:33:00;;;;;;;17.88;3.45;;;3.00;99.90;;;;;;6274610;22;20019;-79
2023/03/07 02:35:26;;;;;;;17.50;3.15;;;3.00;99.90;;;;;;6247068;22;20012;-79
2023/03/07 02:37:56;;;;;;;22.50;3.05;;;2.90;99.90;;;;;;6247152;22;20476;-79
2023/03/07 02:40:25;;;;;;;20.73;4.25;;;2.90;99.90;;;;;;6274001;22;20008;-80
2023/03/07 02:42:54;;;;;;;16.77;2.78;;;2.80;99.90;;;;;;6274005;22;20083;-79
2023/03/07 02:45:20;;;;;;;16.00;3.00;;;2.80;99.90;;;;;;6274454;22;20012;-79
2023/03/07 02:47:46;;;;;;;18.00;3.50;;;3.20;99.90;;;;;;6246937;22;20022;-79
2023/03/07 02:50:13;;;;;;;17.83;3.50;;;2.70;99.90;;;;;;6221624;22;20435;-79
2023/03/07 02:52:39;;;;;;;24.13;3.72;;;2.70;99.90;;;;;;6246879;22;20007;-79
2023/03/07 02:55:06;;;;;;;15.95;2.78;;;2.70;99.90;;;;;;6273886;22;20018;-79
2023/03/07 02:57:32;;;;;;;17.02;3.20;;;2.70;99.90;;;;;;6274359;22;20103;-79
2023/03/07 02:59:58;;;;;;;17.10;3.40;;;2.70;99.90;;;;;;6246697;22;20103;-78
2023/03/07 03:02:25;;;;;;;18.15;3.05;;;2.70;99.90;;;;;;6246828;22;20047;-78
2023/03/07 03:04:50;;;;;;;18.25;3.58;;;2.70;99.90;;;;;;6274370;22;20331;-79
2023/03/07 03:07:16;;;;;;;13.77;2.78;;;2.70;99.90;;;;;;6221461;22;20011;-78
2023/03/07 03:09:42;;;;;;;18.25;2.55;;;2.70;99.90;;;;;;6273610;22;20012;-78
2023/03/07 03:12:07;;;;;;;12.75;2.92;;;2.70;99.90;;;;;;6246817;22;20014;-78
2023/03/07 03:14:33;;;;;;;19.52;3.30;;;2.70;99.90;;;;;;6246546;22;20023;-78
2023/03/07 03:16:59;;;;;;;23.52;3.70;;;2.60;99.90;;;;;;6246426;22;20007;-77
2023/03/07 03:19:24;;;;;;;15.02;3.17;;;2.60;99.90;;;;;;6246584;22;20057;-78
2023/03/07 03:21:50;;;;;;;16.33;3.00;;;2.60;99.90;;;;;;6247088;22;20077;-78
2023/03/07 03:24:16;;;;;;;20.17;3.67;;;2.50;99.90;;;;;;6273464;22;20473;-78
2023/03/07 03:26:41;;;;;;;19.35;3.10;;;2.50;99.90;;;;;;6246677;22;20015;-78
2023/03/07 03:29:08;;;;;;;20.10;3.47;;;2.50;99.90;;;;;;6273358;22;20019;-78
2023/03/07 03:31:34;;;;;;;18.63;3.03;;;2.40;99.90;;;;;;6246194;22;20414;-78
2023/03/07 03:34:00;;;;;;;15.82;2.88;;;2.40;99.90;;;;;;6273926;22;20035;-78
2023/03/07 03:36:26;;;;;;;17.42;3.58;;;2.40;99.90;;;;;;6246409;22;20008;-78
2023/03/07 03:38:56;;;;;;;16.90;2.90;;;2.40;99.90;;;;;;6273006;22;20078;-78
2023/03/07 03:41:23;;;;;;;17.85;3.25;;;2.40;99.90;;;;;;6246629;22;20054;-78
2023/03/07 03:43:49;;;;;;;14.85;2.88;;;2.40;99.90;;;;;;6273770;22;20365;-78
2023/03/07 03:46:19;;;;;;;13.70;2.50;;;2.40;99.90;;;;;;6246361;22;20039;-78
2023/03/07 03:48:51;;;;;;;16.60;3.03;;;2.40;99.90;;;;;;6273828;22;20083;-78
2023/03/07 03:51:17;;;;;;;14.75;2.90;;;2.30;99.90;;;;;;6245755;22;20062;-78
2023/03/07 03:53:42;;;;;;;15.63;2.95;;;2.40;99.90;;;;;;6246557;22;20085;-78
2023/03/07 03:56:14;;;;;;;21.10;3.47;;;2.40;99.90;;;;;;6273762;22;20390;-78
2023/03/07 03:58:41;;;;;;;16.15;2.80;;;2.40;99.90;;;;;;6273806;22;20043;-78
2023/03/07 04:01:09;;;;;;;15.00;2.83;;;2.40;99.90;;;;;;6273857;22;20392;-78
2023/03/07 04:03:37;;;;;;;9.43;2.83;;;2.40;99.90;;;;;;6273435;22;20442;-78
2023/03/07 04:06:05;;;;;;;12.88;2.80;;;2.30;99.90;;;;;;6273189;22;20016;-78
2023/03/07 04:08:32;;;;;;;13.07;2.97;;;2.30;99.90;;;;;;6246221;22;20082;-78
2023/03/07 04:10:58;;;;;;;13.48;2.47;;;2.30;99.90;;;;;;6273711;22;20041;-78
2023/03/07 04:13:24;;;;;;;15.77;3.30;;;2.30;99.90;;;;;;6246035;22;20086;-78
2023/03/07 04:15:51;;;;;;;13.00;3.28;;;2.20;99.90;;;;;;6245956;22;20086;-78
2023/03/07 04:18:17;;;;;;;12.55;2.25;;;2.30;99.90;;;;;;6246494;22;20008;-78
2023/03/07 04:20:43;;;;;;;20.60;3.97;;;2.30;99.90;;;;;;6245479;22;20039;-78
2023/03/07 04:23:09;;;;;;;18.52;2.75;;;2.30;99.90;;;;;;6246028;22;20335;-78
2023/03/07 04:25:35;;;;;;;10.10;2.22;;;2.30;99.90;;;;;;6221011;22;20377;-78
2023/03/07 04:28:01;;;;;;;14.85;2.38;;;2.20;99.90;;;;;;6245987;22;20090;-78
2023/03/07 04:30:27;;;;;;;20.02;3.70;;;2.20;99.90;;;;;;6246074;22;20019;-78
2023/03/07 04:32:53;;;;;;;16.33;2.38;;;2.20;99.90;;;;;;6272803;22;20030;-78
2023/03/07 04:35:18;;;;;;;15.75;2.70;;;2.20;99.90;;;;;;6245676;22;20040;-78
2023/03/07 04:37:44;;;;;;;9.73;2.42;;;2.10;99.90;;;;;;6220650;22;20382;-78
2023/03/07 04:40:10;;;;;;;17.42;3.60;;;2.10;99.90;;;;;;6273708;22;20007;-78
2023/03/07 04:42:36;;;;;;;17.13;3.28;;;2.10;99.90;;;;;;6273563;22;20344;-78
2023/03/07 04:45:02;;;;;;;14.15;2.90;;;2.10;99.90;;;;;;6246280;22;20297;-78
2023/03/07 04:47:28;;;;;;;14.98;2.92;;;2.20;99.90;;;;;;6273141;22;20534;-79
2023/03/07 04:49:54;;;;;;;15.55;2.63;;;2.20;99.90;;;;;;6273074;22;20038;-78
2023/03/07 04:52:19;;;;;;;17.60;3.28;;;2.20;99.90;;;;;;6273478;22;20042;-78
2023/03/07 04:54:45;;;;;;;18.95;3.22;;;2.20;99.90;;;;;;6273520;22;20011;-78
2023/03/07 04:57:10;;;;;;;15.13;2.97;;;2.20;99.90;;;;;;6245768;22;20057;-79
2023/03/07 04:59:38;;;;;;;17.25;2.78;;;2.20;99.90;;;;;;6273382;22;20018;-79
2023/03/07 05:02:10;;;;;;;12.05;2.75;;;2.20;99.90;;;;;;6245821;22;20012;-79
2023/03/07 05:04:36;;;;;;;13.38;2.92;;;2.20;99.90;;;;;;6273122;22;20019;-79
2023/03/07 05:07:02;;;;;;;16.17;2.92;;;2.30;99.90;;;;;;6247646;22;20022;-79
2023/03/07 05:09:28;;;;;;;12.20;2.60;;;2.30;99.90;;;;;;6275405;22;20042;-79
2023/03/07 05:11:53;;;;;;;18.77;2.83;;;2.20;99.90;;;;;;6248353;22;20077;-79
2023/03/07 05:14:19;;;;;;;16.70;3.13;;;2.20;99.90;;;;;;6275387;22;20031;-79
2023/03/07 05:16:45;;;;;;;13.32;2.72;;;2.20;99.90;;;;;;6275253;22;20107;-79
2023/03/07 05:19:12;;;;;;;15.48;2.83;;;2.30;99.90;;;;;;6247364;22;20448;-79
2023/03/07 05:21:39;;;;;;;14.73;2.80;;;2.20;99.90;;;;;;6275212;22;20308;-79
2023/03/07 05:24:06;;;;;;;16.08;3.33;;;2.20;99.90;;;;;;6247510;22;20015;-81
2023/03/07 05:26:32;;;;;;;12.68;2.65;;;2.30;99.90;;;;;;6247921;22;20026;-81
2023/03/07 05:28:58;;;;;;;16.85;2.72;;;2.30;99.90;;;;;;6247761;22;20472;-81
2023/03/07 05:31:23;;;;;;;16.55;3.22;;;2.30;99.90;;;;;;6274855;22;20030;-81
2023/03/07 05:33:49;;;;;;;12.38;2.47;;;2.30;99.90;;;;;;6246953;22;20012;-81
2023/03/07 05:36:15;;;;;;;15.57;3.25;;;2.40;99.90;;;;;;6274912;22;20079;-81
2023/03/07 05:38:41;;;;;;;18.48;2.67;;;2.40;99.90;;;;;;6247066;22;20149;-81
2023/03/07 05:41:06;;;;;;;14.98;3.20;;;2.50;99.90;;;;;;6247628;22;20470;-81
2023/03/07 05:43:32;;;;;;;12.88;3.30;;;2.50;99.90;;;;;;6247507;22;20014;-78
2023/03/07 05:45:57;;;;;;;13.18;2.70;;;2.50;99.90;;;;;;6247551;22;20015;-78
2023/03/07 05:48:23;;;;;;;15.63;3.22;;;2.50;99.90;;;;;;6274451;22;20019;-78
2023/03/07 05:50:49;;;;;;;15.90;2.78;;;2.50;99.90;;;;;;6274929;22;20072;-79
2023/03/07 05:53:14;;;;;;;19.10;3.03;;;2.50;99.90;;;;;;6247833;22;20442;-78
2023/03/07 05:55:40;;;;;;;14.48;2.55;;;2.60;99.90;;;;;;6247473;22;20022;-79
2023/03/07 05:58:05;;;;;;;15.68;3.10;;;2.60;99.90;;;;;;6247517;22;20008;-79
2023/03/07 06:00:31;;;;;;;15.52;2.70;;;2.60;99.90;;;;;;6274461;22;20012;-79
2023/03/07 06:02:57;;;;;;;16.45;2.78;;;2.60;99.90;;;;;;6274320;22;20015;-79
2023/03/07 06:05:22;;;;;;;14.75;3.60;;;2.60;99.90;;;;;;6274602;22;20269;-78
2023/03/07 06:07:48;;;;;;;13.95;2.55;;;2.50;99.90;;;;;;6274714;22;20085;-79
2023/03/07 06:10:15;;;;;;;15.63;3.50;;;2.60;99.90;;;;;;6221873;22;20035;-79
2023/03/07 06:12:41;;;;;;;16.50;3.30;;;2.50;99.90;;;;;;6274429;22;20050;-79
2023/03/07 06:15:07;;;;;;;14.88;2.60;;;2.50;99.90;;;;;;6274678;22;20062;-79
2023/03/07 06:17:33;;;;;;;11.02;2.60;;;2.50;99.90;;;;;;6245467;22;20117;-79
2023/03/07 06:19:59;;;;;;;13.40;3.03;;;2.50;99.90;;;;;;6245781;22;20082;-79
2023/03/07 06:22:24;;;;;;;21.65;3.42;;;2.50;99.90;;;;;;6273323;22;20062;-79
2023/03/07 06:24:50;;;;;;;13.20;2.47;;;2.50;99.90;;;;;;6273196;22;20086;-79
2023/03/07 06:27:15;;;;;;;14.60;2.85;;;2.50;99.90;;;;;;6220539;22;20100;-79
2023/03/07 06:29:41;;;;;;;11.77;2.40;;;2.50;99.90;;;;;;6246074;22;20431;-79
2023/03/07 06:32:07;;;;;;;23.73;3.25;;;2.60;99.90;;;;;;6220485;22;20011;-79
2023/03/07 06:34:32;;;;;;;10.38;2.60;;;2.60;99.90;;;;;;6274238;22;20038;-79
2023/03/07 06:36:58;;;;;;;16.30;3.42;;;2.70;99.90;;;;;;6246587;22;20008;-79
2023/03/07 06:39:25;;;;;;;13.52;2.47;;;2.60;99.90;;;;;;6274474;22;20008;-78
2023/03/07 06:41:51;;;;;;;14.63;2.92;;;2.70;99.90;;;;;;6274385;22;20091;-79
2023/03/07 06:44:17;;;;;;;16.27;2.90;;;2.70;99.90;;;;;;6274056;22;20035;-79
2023/03/07 06:46:44;;;;;;;10.20;2.60;;;2.70;99.90;;;;;;6246110;22;20020;-79
2023/03/07 06:49:10;;;;;;;16.58;2.70;;;2.70;99.90;;;;;;6274247;22;20037;-79
2023/03/07 06:51:35;;;;;;;16.73;2.63;;;2.70;99.90;;;;;;6246883;22;20067;-79
2023/03/07 06:54:01;;;;;;;9.93;2.00;;;2.70;99.90;;;;;;6221665;22;20011;-79
2023/03/07 06:56:29;;;;;;;16.70;2.63;;;2.70;99.90;;;;;;6221516;22;20392;-79
2023/03/07 06:58:54;;;;;;;9.48;2.35;;;2.80;99.90;;;;;;6246816;22;20015;-79
2023/03/07 07:01:24;;;;;;;13.38;2.50;;;2.80;99.90;;;;;;6246202;22;20007;-79
2023/03/07 07:03:50;;;;;;;11.25;2.50;;;2.80;99.90;;;;;;6221158;22;20398;-79
2023/03/07 07:06:16;;;;;;;13.02;2.75;;;2.90;99.90;;;;;;6247098;22;20054;-79
2023/03/07 07:08:41;;;;;;;11.90;2.35;;;2.90;99.90;;;;;;6247080;22;20016;-79
2023/03/07 07:11:07;;;;;;;13.88;2.55;;;2.90;99.90;;;;;;6247272;22;20388;-79
2023/03/07 07:13:33;;;;;;;9.38;2.78;;;2.90;99.90;;;;;;6246800;22;20026;-79
2023/03/07 07:16:08;;;;;;;9.90;1.95;;;2.90;99.90;;;;;;6220732;22;20170;-79
2023/03/07 07:18:34;;;;;;;10.82;2.00;;;2.90;99.90;;;;;;6273702;22;20015;-79
2023/03/07 07:21:00;;;;;;;9.85;2.15;;;2.90;99.90;;;;;;6221301;22;20094;-79
2023/03/07 07:23:26;;;;;;;12.05;2.20;;;3.00;99.90;;;;;;6221291;22;20011;-79
2023/03/07 07:25:52;;;;;;;10.55;2.28;;;2.90;99.90;;;;;;6246902;22;20007;-79
2023/03/07 07:28:17;;;;;;;12.05;2.63;;;3.00;99.90;;;;;;6220951;22;20065;-79
2023/03/07 07:30:43;;;;;;;12.02;2.83;;;3.00;99.90;;;;;;6245689;22;20011;-79
2023/03/07 07:33:09;;;;;;;11.73;2.28;;;3.00;99.90;;;;;;6273792;22;20058;-79
2023/03/07 07:35:34;;;;;;;9.90;2.00;;;2.90;99.90;;;;;;6246206;22;20427;-79
2023/03/07 07:38:00;;;;;;;7.72;1.80;;;3.00;99.90;;;;;;6273853;22;20062;-79
2023/03/07 07:40:25;;;;;;;11.40;2.17;;;3.00;99.90;;;;;;6273774;22;20083;-79
2023/03/07 07:42:54;;;;;;;17.33;2.58;;;3.00;99.90;;;;;;6246543;22;20203;-78
2023/03/07 07:45:21;;;;;;;6.38;1.90;;;3.00;99.90;;;;;;6273239;22;20138;-79
2023/03/07 07:47:48;;;;;;;9.63;2.28;;;3.00;99.90;;;;;;6246550;22;20075;-79
2023/03/07 07:50:15;;;;;;;8.20;2.05;;;3.00;99.90;;;;;;6220892;22;20011;-79
2023/03/07 07:52:41;;;;;;;11.05;2.63;;;3.00;99.90;;;;;;6220836;22;20023;-79
2023/03/07 07:55:07;;;;;;;9.45;2.15;;;3.00;99.90;;;;;;6220900;22;20016;-80
2023/03/07 07:57:32;;;;;;;8.63;2.30;;;3.10;99.90;;;;;;6273438;22;20007;-79
2023/03/07 07:59:58;;;;;;;8.70;1.83;;;3.10;99.90;;;;;;6246000;22;20007;-79
2023/03/07 08:02:24;;;;;;;8.88;1.70;;;3.10;99.90;;;;;;6246199;22;20026;-79
2023/03/07 08:04:49;;;;;;;12.30;2.00;;;3.10;99.90;;;;;;6273804;22;20067;-79
2023/03/07 08:07:15;;;;;;;5.43;1.95;;;3.20;99.90;;;;;;6246625;22;20019;-79
2023/03/07 08:09:41;;;;;;;8.27;2.08;;;3.30;99.90;;;;;;6220928;22;20012;-79
2023/03/07 08:12:10;;;;;;;10.35;2.35;;;3.20;99.90;;;;;;6246524;22;20054;-80
2023/03/07 08:14:36;;;;;;;13.80;2.45;;;3.30;99.90;;;;;;6246258;22;20012;-79
2023/03/07 08:17:02;;;;;;;8.80;2.00;;;3.30;99.90;;;;;;6245828;22;20007;-79
2023/03/07 08:19:28;;;;;;;6.57;1.90;;;3.40;99.90;;;;;;6246546;22;20018;-79
2023/03/07 08:21:53;;;;;;;8.75;1.90;;;3.40;99.90;;;;;;6246509;22;20011;-79
2023/03/07 08:24:19;;;;;;;7.65;1.85;;;3.50;99.90;;;;;;6246697;22;20008;-79
2023/03/07 08:26:45;;;;;;;6.38;2.22;;;3.50;99.90;;;;;;6245677;22;20011;-79
2023/03/07 08:29:12;;;;;;;7.32;1.70;;;3.60;99.90;;;;;;6246219;22;20077;-80
2023/03/07 08:31:37;;;;;;;9.02;2.00;;;3.60;99.90;;;;;;6273037;22;20016;-79
2023/03/07 08:34:03;;;;;;;11.80;2.00;;;3.70;99.90;;;;;;6245952;22;20074;-79
2023/03/07 08:36:29;;;;;;;9.25;1.90;;;3.80;99.90;;;;;;6221172;22;20045;-79
2023/03/07 08:38:54;;;;;;;8.88;1.70;;;3.80;99.90;;;;;;6274184;22;20010;-79
2023/03/07 08:41:21;;;;;;;8.25;1.80;;;3.90;99.90;;;;;;6247782;22;20454;-79
2023/03/07 08:43:47;;;;;;;8.38;1.65;;;4.00;99.90;;;;;;6275273;22;20034;-80
2023/03/07 08:46:13;;;;;;;5.55;1.58;;;4.10;99.90;;;;;;6275368;22;20438;-79
2023/03/07 08:48:39;;;;;;;6.70;1.90;;;4.00;99.90;;;;;;6248118;22;20094;-79
2023/03/07 08:51:07;;;;;;;5.97;1.70;;;4.10;99.90;;;;;;6275692;22;20133;-79
2023/03/07 08:53:33;;;;;;;7.43;1.88;;;4.20;99.90;;;;;;6222916;22;20030;-79
2023/03/07 08:55:58;;;;;;;9.55;2.15;;;4.20;99.90;;;;;;6248056;22;20008;-79
2023/03/07 08:58:24;;;;;;;11.35;2.00;;;4.10;99.90;;;;;;6275579;22;20070;-79
2023/03/07 09:00:49;;;;;;;9.60;2.15;;;4.10;99.90;;;;;;6222790;22;20004;-79
2023/03/07 09:03:15;;;;;;;7.18;1.83;;;4.20;99.90;;;;;;6248282;22;20016;-80
2023/03/07 09:05:40;;;;;;;7.22;1.90;;;4.20;99.90;;;;;;6248037;22;20391;-79
2023/03/07 09:08:07;;;;;;;7.40;2.17;;;4.30;99.90;;;;;;6247948;22;20016;-79
2023/03/07 09:10:33;;;;;;;11.45;2.25;;;4.00;99.90;;;;;;6274814;22;20360;-79
2023/03/07 09:12:59;;;;;;;8.32;2.22;;;3.90;99.90;;;;;;6222520;22;20086;-79
2023/03/07 09:15:25;;;;;;;8.88;2.17;;;3.80;99.90;;;;;;6248116;22;20097;-79
2023/03/07 09:17:51;;;;;;;8.40;2.30;;;3.70;99.90;;;;;;6247712;22;20013;-79
2023/03/07 09:20:17;;;;;;;10.02;2.10;;;3.70;99.90;;;;;;6275339;22;20014;-79
2023/03/07 09:22:43;;;;;;;6.95;1.88;;;3.60;99.90;;;;;;6248208;22;20008;-79
2023/03/07 09:25:09;;;;;;;10.10;2.13;;;3.50;99.90;;;;;;6247182;22;20360;-79
2023/03/07 09:27:35;;;;;;;8.05;1.90;;;3.50;99.90;;;;;;6247836;22;20004;-79
2023/03/07 09:30:00;;;;;;;8.30;2.03;;;3.60;99.90;;;;;;6248026;22;20041;-79
2023/03/07 09:32:26;;;;;;;8.80;1.85;;;3.60;99.90;;;;;;6247422;22;20291;-79
2023/03/07 09:34:52;;;;;;;8.43;2.13;;;3.50;99.90;;;;;;6222344;22;20039;-79
2023/03/07 09:37:18;;;;;;;8.18;1.95;;;3.50;99.90;;;;;;6275050;22;20008;-79
2023/03/07 09:39:44;;;;;;;8.43;1.80;;;3.50;99.90;;;;;;6247113;22;20003;-79
2023/03/07 09:42:19;;;;;;;8.85;2.05;;;3.50;99.90;;;;;;6247962;22;20430;-79
2023/03/07 09:45:14;;;;;;;7.38;2.63;;;3.50;99.90;;;;;;6222100;22;20019;-79
2023/03/07 09:48:29;;;;;;;10.05;1.98;;;3.40;99.90;;;;;;6275028;22;20043;-79
2023/03/07 09:51:12;;;;;;;13.77;2.35;;;3.50;99.90;;;;;;6274638;22;20312;-80
2023/03/07 09:54:10;;;;;;;8.88;2.00;;;3.60;99.90;;;;;;6247123;22;20008;-79
2023/03/07 09:56:51;;;;;;;8.63;2.15;;;3.70;99.90;;;;;;6247394;22;20039;-79
2023/03/07 09:59:40;;;;;;;8.70;1.85;;;3.90;99.90;;;;;;6274571;22;20461;-79
2023/03/07 10:02:51;;;;;;;8.13;2.08;;;3.90;99.90;;;;;;6222158;22;20378;-79
2023/03/07 10:05:34;;;;;;;9.88;2.20;;;3.90;99.90;;;;;;6214769;22;20015;-79
2023/03/07 10:08:00;;;;;;;10.90;2.40;;;3.90;99.90;;;;;;6222422;22;20011;-79
2023/03/07 10:10:45;;;;;;;11.60;2.13;;;4.00;99.90;;;;;;6274081;22;20011;-79
2023/03/07 10:13:35;;;;;;;10.55;2.75;;;4.10;99.90;;;;;;6247364;22;20091;-79
2023/03/07 10:16:08;;;;;;;11.88;2.47;;;4.20;99.90;;;;;;6247707;22;20012;-79
2023/03/07 10:18:59;;;;;;;7.90;2.03;;;4.30;99.90;;;;;;6247204;22;20012;-79
2023/03/07 10:22:06;;;;;;;12.98;2.40;;;4.40;99.90;;;;;;6274842;22;20325;-79
2023/03/07 10:24:50;;;;;;;12.07;2.28;;;4.50;99.90;;;;;;6246510;22;20031;-79
2023/03/07 10:27:16;;;;;;;9.27;2.28;;;4.60;99.90;;;;;;6247545;22;20073;-81
2023/03/07 10:29:46;;;;;;;17.17;2.67;;;4.70;99.90;;;;;;6221974;22;20008;-79
2023/03/07 10:32:30;;;;;;;11.05;2.42;;;4.80;99.90;;;;;;6194685;23;20012;-79
2023/03/07 10:35:03;;;;;;;12.18;2.53;;;4.90;99.90;;;;;;6212093;23;20074;-79
2023/03/07 10:37:40;;;;;;;8.90;2.40;;;5.00;99.90;;;;;;6212902;23;20032;-79
2023/03/07 10:40:13;;;;;;;11.85;2.53;;;5.10;99.90;;;;;;6213800;23;20347;-79
2023/03/07 10:42:39;;;;;;;12.73;2.65;;;5.20;99.90;;;;;;6213203;23;20024;-79
2023/03/07 10:45:06;;;;;;;11.38;2.92;;;5.30;99.90;;;;;;6187040;23;20013;-79
2023/03/07 10:47:31;;;;;;;12.00;2.60;;;5.30;99.90;;;;;;6186463;23;20005;-80
2023/03/07 10:50:20;;;;;;;10.75;2.42;;;5.40;99.90;;;;;;6186754;23;20004;-79
2023/03/07 10:52:56;;;;;;;11.43;2.47;;;5.50;99.90;;;;;;6211149;23;20071;-79
2023/03/07 10:55:32;;;;;;;11.30;2.83;;;5.60;99.90;;;;;;6186451;23;20090;-80
2023/03/07 10:58:27;;;;;;;13.80;2.50;;;5.50;99.90;;;;;;6212181;23;20019;-79
2023/03/07 11:01:15;;;;;;;10.88;2.53;;;5.50;99.90;;;;;;6186572;23;20411;-79
2023/03/07 11:04:11;;;;;;;10.82;2.50;;;5.60;99.90;;;;;;6211504;23;20015;-79
2023/03/07 11:06:39;;;;;;;15.35;2.47;;;5.70;99.90;;;;;;6188668;23;20427;-80
2023/03/07 11:09:46;;;;;;;9.50;2.28;;;5.80;99.90;;;;;;6211285;23;20015;-79
2023/03/07 11:12:18;;;;;;;9.27;2.45;;;6.00;99.90;;;;;;6142665;23;20012;-79
2023/03/07 11:14:51;;;;;;;7.43;2.17;;;6.00;99.90;;;;;;6211639;23;20310;-79
2023/03/07 11:17:23;;;;;;;11.15;2.92;;;5.90;99.90;;;;;;6211222;23;20024;-80
2023/03/07 11:19:56;;;;;;;15.70;2.80;;;5.90;99.90;;;;;;6212825;23;20017;-79
2023/03/07 11:22:26;;;;;;;10.48;2.28;;;6.00;99.90;;;;;;6185682;23;20011;-79
2023/03/07 11:25:19;;;;;;;10.95;2.35;;;5.90;99.90;;;;;;6186284;23;20009;-79
2023/03/07 11:27:44;;;;;;;9.52;2.28;;;5.90;99.90;;;;;;6213300;23;20040;-79
2023/03/07 11:30:32;;;;;;;7.38;2.28;;;6.30;99.90;;;;;;6211272;23;20013;-79
2023/03/07 11:33:34;;;;;;;14.38;2.60;;;6.00;99.90;;;;;;6243521;23;20085;-79
2023/03/07 11:36:21;;;;;;;18.40;3.28;;;6.00;99.90;;;;;;6242861;22;20079;-80
2023/03/07 11:38:57;;;;;;;14.43;2.78;;;6.00;99.90;;;;;;6241700;23;20016;-79
2023/03/07 11:41:34;;;;;;;10.80;2.92;;;5.90;99.90;;;;;;6216499;23;20111;-79
2023/03/07 11:44:21;;;;;;;9.88;2.22;;;6.00;99.90;;;;;;6241608;23;20043;-79
2023/03/07 11:46:56;;;;;;;13.27;2.70;;;6.00;99.90;;;;;;6216023;23;20019;-79
2023/03/07 11:49:42;;;;;;;11.07;2.75;;;6.10;99.90;;;;;;6241397;23;20046;-79
2023/03/07 11:52:41;;;;;;;11.75;2.33;;;6.10;99.90;;;;;;6241217;23;20008;-79
2023/03/07 11:55:06;;;;;;;13.48;2.85;;;6.20;99.90;;;;;;6169940;23;20023;-79
2023/03/07 11:57:57;;;;;;;9.10;2.20;;;6.30;99.90;;;;;;6241633;23;20016;-79
2023/03/07 12:00:32;;;;;;;13.38;2.40;;;6.40;99.90;;;;;;6215971;23;20082;-79
2023/03/07 12:03:27;;;;;;;7.97;2.33;;;6.50;99.90;;;;;;6243363;22;20083;-79
2023/03/07 12:06:25;;;;;;;11.30;2.35;;;6.10;99.90;;;;;;6242533;22;20130;-79
2023/03/07 12:09:22;;;;;;;6.40;1.95;;;5.70;99.90;;;;;;6241573;23;20016;-79
2023/03/07 12:12:10;;;;;;;9.85;2.10;;;5.20;99.90;;;;;;6241339;23;20023;-79
2023/03/07 12:14:48;;;;;;;11.25;2.15;;;5.10;99.90;;;;;;6215557;23;20019;-79
2023/03/07 12:17:23;;;;;;;10.73;2.20;;;5.10;99.90;;;;;;6243058;22;20388;-79
2023/03/07 12:20:17;;;;;;;13.10;2.60;;;5.00;99.90;;;;;;6240532;23;20020;-79
2023/03/07 12:23:00;;;;;;;11.23;2.25;;;5.00;99.90;;;;;;6241517;23;20335;-79
2023/03/07 12:25:37;;;;;;;9.48;1.65;;;5.00;99.90;;;;;;6215617;23;20083;-79
2023/03/07 12:28:16;;;;;;;11.45;1.83;;;5.00;99.90;;;;;;6216031;23;20019;-79
2023/03/07 12:31:01;;;;;;;9.63;1.95;;;4.90;99.90;;;;;;6218307;22;20086;-79
2023/03/07 12:33:51;;;;;;;8.43;1.80;;;5.60;99.90;;;;;;6245514;22;20020;-79
2023/03/07 12:36:45;;;;;;;12.32;2.03;;;4.90;99.90;;;;;;6273557;22;20015;-78
2023/03/07 12:39:20;;;;;;;6.60;1.85;;;4.90;99.90;;;;;;6220912;22;20388;-81
2023/03/07 12:42:04;;;;;;;10.77;2.10;;;4.90;99.90;;;;;;6220702;22;20130;-81
2023/03/07 12:44:46;;;;;;;12.80;2.45;;;4.90;99.90;;;;;;6245922;22;20012;-81
2023/03/07 12:47:43;;;;;;;8.13;1.85;;;4.90;99.90;;;;;;6246415;22;20016;-80
2023/03/07 12:50:18;;;;;;;10.25;2.00;;;5.00;99.90;;;;;;6246350;22;20335;-80
2023/03/07 12:53:05;;;;;;;13.25;2.60;;;5.00;99.90;;;;;;6273567;22;20016;-81
2023/03/07 12:55:45;;;;;;;12.18;2.30;;;5.00;99.90;;;;;;6246188;22;20031;-79
2023/03/07 12:58:33;;;;;;;12.63;2.35;;;5.00;99.90;;;;;;6273835;22;20065;-79
2023/03/07 13:01:03;;;;;;;12.55;1.90;;;5.10;99.90;;;;;;6273473;22;20053;-79
2023/03/07 13:04:08;;;;;;;10.88;3.13;;;5.10;99.90;;;;;;6245763;22;20363;-79
2023/03/07 13:06:38;;;;;;;12.43;2.70;;;5.10;99.90;;;;;;6246358;22;20061;-79
2023/03/07 13:09:04;;;;;;;10.70;2.25;;;5.20;99.90;;;;;;6220873;22;20477;-79